sensor_id;sensor_type;location;lat;lon;timestamp;pressure;altitude;pressure_sealevel;temperature;humidity
12664;BME280;6396;58.490;15.528;2023-02-10T00:01:41;100469.28;;;4.15;100.00
12664;BME280;6396;58.490;15.528;2023-02-10T00:04:11;100418.84;;;3.93;100.00
12664;BME280;6396;58.490;15.528;2023-02-10T00:06:38;100446.66;;;4.12;100.00
12664;BME280;6396;58.490;15.528;2023-02-10T00:09:06;100279.84;;;3.05;100.00
12664;BME280;6396;58.490;15.528;2023-02-10T00:11:33;100416.25;;;3.78;100.00
12664;BME280;6396;58.490;15.528;2023-02-10T00:14:18;100421.47;;;3.86;100.00
12664;BME280;6396;58.490;15.528;2023-02-10T00:16:48;100383.25;;;3.58;100.00
12664;BME280;6396;58.490;15.528;2023-02-10T00:19:16;100438.06;;;3.65;100.00
12664;BME280;6396;58.490;15.528;2023-02-10T00:21:43;100361.53;;;3.31;100.00
12664;BME280;6396;58.490;15.528;2023-02-10T00:24:10;100494.56;;;3.98;100.00
12664;BME280;6396;58.490;15.528;2023-02-10T00:26:37;100497.19;;;3.96;100.00
12664;BME280;6396;58.490;15.528;2023-02-10T00:29:04;100425.91;;;3.48;100.00
12664;BME280;6396;58.490;15.528;2023-02-10T00:31:31;100469.38;;;3.61;100.00
12664;BME280;6396;58.490;15.528;2023-02-10T00:33:58;100509.41;;;3.90;100.00
12664;BME280;6396;58.490;15.528;2023-02-10T00:36:26;100490.25;;;3.86;100.00
12664;BME280;6396;58.490;15.528;2023-02-10T00:38:53;100438.06;;;3.47;100.00
12664;BME280;6396;58.490;15.528;2023-02-10T00:41:21;100478.94;;;3.63;100.00
12664;BME280;6396;58.490;15.528;2023-02-10T00:43:49;100485.91;;;3.41;100.00
12664;BME280;6396;58.490;15.528;2023-02-10T00:46:18;100552.91;;;3.77;100.00
12664;BME280;6396;58.490;15.528;2023-02-10T00:48:45;100520.69;;;3.77;100.00
12664;BME280;6396;58.490;15.528;2023-02-10T00:51:13;100503.31;;;3.64;100.00
12664;BME280;6396;58.490;15.528;2023-02-10T00:53:41;100456.34;;;3.21;100.00
12664;BME280;6396;58.490;15.528;2023-02-10T00:56:10;100478.06;;;3.17;100.00
12664;BME280;6396;58.490;15.528;2023-02-10T00:58:37;100540.72;;;3.73;100.00
12664;BME280;6396;58.490;15.528;2023-02-10T01:01:04;100492.88;;;3.32;100.00
12664;BME280;6396;58.490;15.528;2023-02-10T01:03:31;100470.25;;;3.25;100.00
12664;BME280;6396;58.490;15.528;2023-02-10T01:05:58;100513.75;;;3.30;100.00
12664;BME280;6396;58.490;15.528;2023-02-10T01:08:26;100579.88;;;3.66;100.00
12664;BME280;6396;58.490;15.528;2023-02-10T01:11:00;100566.78;;;3.35;100.00
12664;BME280;6396;58.490;15.528;2023-02-10T01:13:27;100574.63;;;3.38;100.00
12664;BME280;6396;58.490;15.528;2023-02-10T01:15:53;100512.81;;;3.09;100.00
12664;BME280;6396;58.490;15.528;2023-02-10T01:22:33;100605.97;;;3.60;100.00
12664;BME280;6396;58.490;15.528;2023-02-10T01:25:12;100578.13;;;3.57;100.00
12664;BME280;6396;58.490;15.528;2023-02-10T01:27:57;100649.47;;;3.55;100.00
12664;BME280;6396;58.490;15.528;2023-02-10T01:33:45;100269.28;;;1.71;100.00
12664;BME280;6396;58.490;15.528;2023-02-10T01:36:15;99605.63;;;-2.22;100.00
12664;BME280;6396;58.490;15.528;2023-02-10T01:39:12;100588.53;;;3.42;100.00
12664;BME280;6396;58.490;15.528;2023-02-10T01:41:58;100600.75;;;3.45;100.00
12664;BME280;6396;58.490;15.528;2023-02-10T01:48:12;99855.34;;;-1.58;100.00
12664;BME280;6396;58.490;15.528;2023-02-10T01:50:52;100356.06;;;1.82;100.00
12664;BME280;6396;58.490;15.528;2023-02-10T01:53:20;100483.09;;;2.51;100.00
12664;BME280;6396;58.490;15.528;2023-02-10T01:55:51;100546.72;;;3.04;100.00
12664;BME280;6396;58.490;15.528;2023-02-10T01:58:21;100582.31;;;2.98;100.00
12664;BME280;6396;58.490;15.528;2023-02-10T02:00:49;100428.16;;;2.00;100.00
12664;BME280;6396;58.490;15.528;2023-02-10T02:03:17;100584.03;;;2.96;100.00
12664;BME280;6396;58.490;15.528;2023-02-10T02:05:44;100644.13;;;3.18;100.00
12664;BME280;6396;58.490;15.528;2023-02-10T02:08:15;100490.84;;;2.36;100.00
12664;BME280;6396;58.490;15.528;2023-02-10T02:16:31;100448.22;;;2.14;100.00
12664;BME280;6396;58.490;15.528;2023-02-10T02:19:16;100364.63;;;1.57;100.00
12664;BME280;6396;58.490;15.528;2023-02-10T02:22:27;100603.16;;;2.92;100.00
12664;BME280;6396;58.490;15.528;2023-02-10T02:25:10;100662.34;;;3.09;100.00
12664;BME280;6396;58.490;15.528;2023-02-10T02:27:55;100654.59;;;3.20;100.00
12664;BME280;6396;58.490;15.528;2023-02-10T02:33:40;100678.03;;;3.17;100.00
12664;BME280;6396;58.490;15.528;2023-02-10T02:36:12;100659.69;;;2.97;100.00
12664;BME280;6396;58.490;15.528;2023-02-10T02:38:41;100510.69;;;2.16;100.00
12664;BME280;6396;58.490;15.528;2023-02-10T02:41:08;100642.16;;;2.72;100.00
12664;BME280;6396;58.490;15.528;2023-02-10T02:43:35;100717.13;;;3.12;100.00
12664;BME280;6396;58.490;15.528;2023-02-10T02:46:08;100611.66;;;2.52;100.00
12664;BME280;6396;58.490;15.528;2023-02-10T02:48:50;100687.56;;;3.12;100.00
12664;BME280;6396;58.490;15.528;2023-02-10T02:51:31;100706.69;;;3.11;100.00
12664;BME280;6396;58.490;15.528;2023-02-10T02:54:08;100622.16;;;2.70;100.00
12664;BME280;6396;58.490;15.528;2023-02-10T02:56:43;100653.53;;;2.85;100.00
12664;BME280;6396;58.490;15.528;2023-02-10T02:59:17;100310.31;;;0.76;100.00
12664;BME280;6396;58.490;15.528;2023-02-10T03:01:51;100704.09;;;3.08;100.00
12664;BME280;6396;58.490;15.528;2023-02-10T03:04:22;100360.47;;;0.69;100.00
12664;BME280;6396;58.490;15.528;2023-02-10T03:06:49;100666.50;;;2.73;100.00
12664;BME280;6396;58.490;15.528;2023-02-10T03:09:16;100244.25;;;0.46;100.00
12664;BME280;6396;58.490;15.528;2023-02-10T03:11:43;100674.31;;;2.73;100.00
12664;BME280;6396;58.490;15.528;2023-02-10T03:14:10;100749.25;;;3.04;100.00
12664;BME280;6396;58.490;15.528;2023-02-10T03:16:37;100736.22;;;3.02;100.00
12664;BME280;6396;58.490;15.528;2023-02-10T03:19:03;100666.50;;;2.73;100.00
12664;BME280;6396;58.490;15.528;2023-02-10T03:21:32;100732.72;;;3.02;100.00
12664;BME280;6396;58.490;15.528;2023-02-10T03:23:58;100725.59;;;2.75;100.00
12664;BME280;6396;58.490;15.528;2023-02-10T03:26:26;100676.72;;;2.46;100.00
12664;BME280;6396;58.490;15.528;2023-02-10T03:28:54;100783.09;;;2.99;100.00
12664;BME280;6396;58.490;15.528;2023-02-10T03:31:21;100691.63;;;2.63;100.00
12664;BME280;6396;58.490;15.528;2023-02-10T03:33:47;100672.34;;;2.42;100.00
12664;BME280;6396;58.490;15.528;2023-02-10T03:36:14;100810.06;;;2.95;100.00
12664;BME280;6396;58.490;15.528;2023-02-10T03:38:43;100696.81;;;2.60;100.00
12664;BME280;6396;58.490;15.528;2023-02-10T03:41:10;100704.56;;;2.48;100.00
12664;BME280;6396;58.490;15.528;2023-02-10T03:43:38;100524.13;;;1.53;100.00
12664;BME280;6396;58.490;15.528;2023-02-10T03:46:06;100699.28;;;2.44;100.00
12664;BME280;6396;58.490;15.528;2023-02-10T03:48:33;100756.03;;;2.78;100.00
12664;BME280;6396;58.490;15.528;2023-02-10T03:51:02;100840.47;;;2.98;100.00
12664;BME280;6396;58.490;15.528;2023-02-10T03:53:31;100688.75;;;2.28;100.00
12664;BME280;6396;58.490;15.528;2023-02-10T03:55:59;100424.53;;;0.69;100.00
12664;BME280;6396;58.490;15.528;2023-02-10T03:58:26;100760.28;;;2.70;100.00
12664;BME280;6396;58.490;15.528;2023-02-10T04:00:53;100762.88;;;2.64;100.00
12664;BME280;6396;58.490;15.528;2023-02-10T04:03:20;100748.84;;;2.48;100.00
12664;BME280;6396;58.490;15.528;2023-02-10T04:05:47;100810.03;;;2.94;100.00
12664;BME280;6396;58.490;15.528;2023-02-10T04:08:14;100668.53;;;1.97;100.00
12664;BME280;6396;58.490;15.528;2023-02-10T04:11:15;100736.22;;;1.99;100.00
12664;BME280;6396;58.490;15.528;2023-02-10T04:17:17;100905.56;;;2.87;100.00
12664;BME280;6396;58.490;15.528;2023-02-10T04:20:10;100837.75;;;2.84;100.00
12664;BME280;6396;58.490;15.528;2023-02-10T04:26:38;99857.06;;;-2.95;100.00
12664;BME280;6396;58.490;15.528;2023-02-10T04:29:10;100919.13;;;2.53;100.00
12664;BME280;6396;58.490;15.528;2023-02-10T04:31:43;100348.91;;;-0.35;100.00
12664;BME280;6396;58.490;15.528;2023-02-10T04:34:35;100553.88;;;0.95;97.29
12664;BME280;6396;58.490;15.528;2023-02-10T04:37:11;100375.69;;;-0.37;96.90
12664;BME280;6396;58.490;15.528;2023-02-10T04:53:24;100437.00;;;-0.41;97.37
12664;BME280;6396;58.490;15.528;2023-02-10T04:55:50;100883.34;;;2.37;99.45
12664;BME280;6396;58.490;15.528;2023-02-10T04:58:17;100850.13;;;2.16;92.70
12664;BME280;6396;58.490;15.528;2023-02-10T05:00:44;100784.66;;;1.86;97.85
12664;BME280;6396;58.490;15.528;2023-02-10T05:03:11;100911.13;;;2.38;93.93
12664;BME280;6396;58.490;15.528;2023-02-10T05:05:38;100772.56;;;1.91;95.26
12664;BME280;6396;58.490;15.528;2023-02-10T05:08:04;100501.88;;;0.21;91.66
12664;BME280;6396;58.490;15.528;2023-02-10T05:10:33;100988.84;;;2.71;90.04
12664;BME280;6396;58.490;15.528;2023-02-10T05:13:00;100992.28;;;2.70;93.66
12664;BME280;6396;58.490;15.528;2023-02-10T05:15:27;100781.16;;;1.81;92.82
12664;BME280;6396;58.490;15.528;2023-02-10T05:17:53;100945.38;;;2.71;89.98
12664;BME280;6396;58.490;15.528;2023-02-10T05:20:20;100922.78;;;2.70;90.97
12664;BME280;6396;58.490;15.528;2023-02-10T05:22:47;100953.16;;;2.68;83.86
12664;BME280;6396;58.490;15.528;2023-02-10T05:25:14;100980.81;;;2.56;87.67
12664;BME280;6396;58.490;15.528;2023-02-10T05:27:42;100931.41;;;2.66;84.33
12664;BME280;6396;58.490;15.528;2023-02-10T05:30:10;100850.94;;;2.15;86.97
12664;BME280;6396;58.490;15.528;2023-02-10T05:32:38;100903.38;;;2.44;87.97
12664;BME280;6396;58.490;15.528;2023-02-10T05:35:05;100937.97;;;2.31;89.06
12664;BME280;6396;58.490;15.528;2023-02-10T05:37:32;100736.28;;;1.32;84.33
12664;BME280;6396;58.490;15.528;2023-02-10T05:39:59;100980.00;;;2.61;86.96
12664;BME280;6396;58.490;15.528;2023-02-10T05:42:26;100878.66;;;2.07;90.11
12664;BME280;6396;58.490;15.528;2023-02-10T05:44:54;100951.81;;;2.27;93.79
12664;BME280;6396;58.490;15.528;2023-02-10T05:47:21;100771.84;;;1.31;86.86
12664;BME280;6396;58.490;15.528;2023-02-10T05:53:32;100986.91;;;2.55;79.11
12664;BME280;6396;58.490;15.528;2023-02-10T05:56:03;101027.72;;;2.54;87.75
12664;BME280;6396;58.490;15.528;2023-02-10T05:58:30;101047.72;;;2.54;85.13
12664;BME280;6396;58.490;15.528;2023-02-10T06:01:05;100748.19;;;1.13;79.09
12664;BME280;6396;58.490;15.528;2023-02-10T06:03:47;100464.50;;;-0.52;81.46
12664;BME280;6396;58.490;15.528;2023-02-10T06:06:25;100450.41;;;-0.67;86.87
12664;BME280;6396;58.490;15.528;2023-02-10T06:08:55;100313.59;;;-2.36;77.50
12664;BME280;6396;58.490;15.528;2023-02-10T06:11:22;100412.09;;;-0.88;82.16
12664;BME280;6396;58.490;15.528;2023-02-10T06:13:54;100672.59;;;0.38;84.14
12664;BME280;6396;58.490;15.528;2023-02-10T06:16:22;101012.03;;;2.51;82.54
12664;BME280;6396;58.490;15.528;2023-02-10T06:18:49;101025.88;;;2.47;88.74
12664;BME280;6396;58.490;15.528;2023-02-10T06:21:16;101023.25;;;2.46;84.04
12664;BME280;6396;58.490;15.528;2023-02-10T06:23:44;101080.63;;;2.49;88.50
12664;BME280;6396;58.490;15.528;2023-02-10T06:26:11;100647.28;;;0.24;87.52
12664;BME280;6396;58.490;15.528;2023-02-10T06:28:38;101005.16;;;1.93;87.16
12664;BME280;6396;58.490;15.528;2023-02-10T06:31:05;101023.59;;;2.08;93.62
12664;BME280;6396;58.490;15.528;2023-02-10T06:33:34;100966.06;;;1.89;91.50
12664;BME280;6396;58.490;15.528;2023-02-10T06:36:01;101093.63;;;2.47;89.83
12664;BME280;6396;58.490;15.528;2023-02-10T06:38:30;101065.81;;;2.45;88.99
12664;BME280;6396;58.490;15.528;2023-02-10T06:40:57;101065.81;;;2.45;89.49
12664;BME280;6396;58.490;15.528;2023-02-10T06:43:24;100850.47;;;1.13;90.58
12664;BME280;6396;58.490;15.528;2023-02-10T06:45:51;101074.44;;;2.42;89.94
12664;BME280;6396;58.490;15.528;2023-02-10T06:48:24;101040.63;;;1.85;92.62
12664;BME280;6396;58.490;15.528;2023-02-10T06:50:53;101053.38;;;2.25;84.28
12664;BME280;6396;58.490;15.528;2023-02-10T06:53:20;101151.78;;;2.43;86.85
12664;BME280;6396;58.490;15.528;2023-02-10T06:55:47;101125.72;;;2.43;83.70
12664;BME280;6396;58.490;15.528;2023-02-10T06:58:14;101128.25;;;2.39;85.89
12664;BME280;6396;58.490;15.528;2023-02-10T07:00:41;101005.00;;;1.83;82.77
12664;BME280;6396;58.490;15.528;2023-02-10T07:03:08;101148.19;;;2.38;85.71
12664;BME280;6396;58.490;15.528;2023-02-10T07:05:35;101086.84;;;2.00;88.56
12664;BME280;6396;58.490;15.528;2023-02-10T07:08:03;101071.28;;;2.03;87.94
12664;BME280;6396;58.490;15.528;2023-02-10T07:10:30;101127.44;;;2.43;85.13
12664;BME280;6396;58.490;15.528;2023-02-10T07:12:57;100771.75;;;0.18;85.47
12664;BME280;6396;58.490;15.528;2023-02-10T07:15:25;100930.88;;;1.03;82.77
12664;BME280;6396;58.490;15.528;2023-02-10T07:17:52;101051.50;;;1.62;85.24
12664;BME280;6396;58.490;15.528;2023-02-10T07:20:20;101160.44;;;2.44;84.24
12664;BME280;6396;58.490;15.528;2023-02-10T07:22:47;101077.38;;;2.06;83.74
12664;BME280;6396;58.490;15.528;2023-02-10T07:25:15;101163.97;;;2.47;87.95
12664;BME280;6396;58.490;15.528;2023-02-10T07:27:42;101127.03;;;2.17;89.18
12664;BME280;6396;58.490;15.528;2023-02-10T07:30:10;101118.41;;;2.21;85.55
12664;BME280;6396;58.490;15.528;2023-02-10T07:32:37;101160.56;;;2.50;89.45
12664;BME280;6396;58.490;15.528;2023-02-10T07:35:07;101198.75;;;2.48;87.88
12664;BME280;6396;58.490;15.528;2023-02-10T07:37:33;101177.91;;;2.48;93.13
12664;BME280;6396;58.490;15.528;2023-02-10T07:40:00;100971.06;;;0.75;88.99
12664;BME280;6396;58.490;15.528;2023-02-10T07:42:28;101247.50;;;2.55;87.73
12664;BME280;6396;58.490;15.528;2023-02-10T07:44:57;100997.94;;;1.22;90.77
12664;BME280;6396;58.490;15.528;2023-02-10T07:47:24;101164.38;;;2.17;89.27
12664;BME280;6396;58.490;15.528;2023-02-10T07:49:50;101209.22;;;2.52;93.85
12664;BME280;6396;58.490;15.528;2023-02-10T07:52:19;101125.44;;;2.25;89.44
12664;BME280;6396;58.490;15.528;2023-02-10T07:54:46;101152.31;;;2.24;91.68
12664;BME280;6396;58.490;15.528;2023-02-10T07:57:13;101236.38;;;2.66;86.32
12664;BME280;6396;58.490;15.528;2023-02-10T07:59:41;101206.00;;;2.67;86.69
12664;BME280;6396;58.490;15.528;2023-02-10T08:02:09;100945.56;;;1.01;87.09
12664;BME280;6396;58.490;15.528;2023-02-10T08:04:36;101199.09;;;2.72;89.25
12664;BME280;6396;58.490;15.528;2023-02-10T08:07:03;100935.03;;;0.95;88.13
12664;BME280;6396;58.490;15.528;2023-02-10T08:09:30;101169.03;;;2.37;88.55
12664;BME280;6396;58.490;15.528;2023-02-10T08:11:56;100918.94;;;1.15;80.99
12664;BME280;6396;58.490;15.528;2023-02-10T08:14:23;100850.88;;;0.85;88.81
12664;BME280;6396;58.490;15.528;2023-02-10T08:16:52;101226.44;;;2.99;82.20
12664;BME280;6396;58.490;15.528;2023-02-10T08:19:18;101274.31;;;3.03;81.78
12664;BME280;6396;58.490;15.528;2023-02-10T08:21:45;101129.50;;;2.08;82.07
12664;BME280;6396;58.490;15.528;2023-02-10T08:24:12;101283.97;;;3.08;82.15
12664;BME280;6396;58.490;15.528;2023-02-10T08:26:39;100942.75;;;1.38;82.83
12664;BME280;6396;58.490;15.528;2023-02-10T08:29:10;101259.81;;;3.20;78.65
12664;BME280;6396;58.490;15.528;2023-02-10T08:31:37;101273.72;;;3.22;84.22
12664;BME280;6396;58.490;15.528;2023-02-10T08:34:13;101313.84;;;3.27;81.70
12664;BME280;6396;58.490;15.528;2023-02-10T08:36:40;101280.84;;;3.30;85.41
12664;BME280;6396;58.490;15.528;2023-02-10T08:39:08;101197.41;;;2.74;82.70
12664;BME280;6396;58.490;15.528;2023-02-10T08:41:34;101274.06;;;3.45;86.61
12664;BME280;6396;58.490;15.528;2023-02-10T08:44:01;101223.81;;;2.98;82.43
12664;BME280;6396;58.490;15.528;2023-02-10T08:46:28;101149.38;;;2.58;82.71
12664;BME280;6396;58.490;15.528;2023-02-10T08:48:55;101286.38;;;3.56;85.88
12664;BME280;6396;58.490;15.528;2023-02-10T08:51:23;101132.72;;;2.49;85.36
12664;BME280;6396;58.490;15.528;2023-02-10T08:53:50;101248.69;;;3.34;80.24
12664;BME280;6396;58.490;15.528;2023-02-10T08:56:18;101241.84;;;3.41;77.01
12664;BME280;6396;58.490;15.528;2023-02-10T08:58:45;101246.97;;;3.35;73.14
12664;BME280;6396;58.490;15.528;2023-02-10T09:01:15;101294.59;;;3.86;74.24
12664;BME280;6396;58.490;15.528;2023-02-10T09:03:43;101145.59;;;2.98;78.52
12664;BME280;6396;58.490;15.528;2023-02-10T09:06:13;101063.13;;;2.40;73.97
12664;BME280;6396;58.490;15.528;2023-02-10T09:08:42;101114.38;;;3.04;76.41
12664;BME280;6396;58.490;15.528;2023-02-10T09:11:09;101365.69;;;4.34;77.77
12664;BME280;6396;58.490;15.528;2023-02-10T09:13:36;101236.28;;;3.89;70.87
12664;BME280;6396;58.490;15.528;2023-02-10T09:16:03;101336.22;;;4.47;74.63
12664;BME280;6396;58.490;15.528;2023-02-10T09:18:30;101312.03;;;4.71;71.60
12664;BME280;6396;58.490;15.528;2023-02-10T09:20:57;101060.53;;;3.10;70.71
12664;BME280;6396;58.490;15.528;2023-02-10T09:23:24;101282.97;;;4.38;66.36
12664;BME280;6396;58.490;15.528;2023-02-10T09:25:54;101347.91;;;4.83;65.12
12664;BME280;6396;58.490;15.528;2023-02-10T09:28:21;101274.28;;;4.40;70.02
12664;BME280;6396;58.490;15.528;2023-02-10T09:34:29;101340.16;;;4.99;60.58
12664;BME280;6396;58.490;15.528;2023-02-10T10:03:47;101333.53;;;5.45;62.90
12664;BME280;6396;58.490;15.528;2023-02-10T10:06:22;101320.06;;;4.95;62.44
12664;BME280;6396;58.490;15.528;2023-02-10T10:29:43;101044.69;;;3.81;61.38
12664;BME280;6396;58.490;15.528;2023-02-10T10:32:15;101267.63;;;4.76;62.47
12664;BME280;6396;58.490;15.528;2023-02-10T10:34:49;101348.34;;;5.40;60.89
12664;BME280;6396;58.490;15.528;2023-02-10T10:37:19;101259.81;;;4.83;62.97
12664;BME280;6396;58.490;15.528;2023-02-10T10:39:48;100932.72;;;3.07;60.38
12664;BME280;6396;58.490;15.528;2023-02-10T10:42:21;101254.69;;;4.98;61.49
12664;BME280;6396;58.490;15.528;2023-02-10T10:44:55;100995.91;;;3.75;59.63
12664;BME280;6396;58.490;15.528;2023-02-10T10:47:34;101379.06;;;5.71;55.54
12664;BME280;6396;58.490;15.528;2023-02-10T10:50:03;101269.59;;;5.10;59.26
12664;BME280;6396;58.490;15.528;2023-02-10T10:52:33;101201.25;;;4.62;58.72
12664;BME280;6396;58.490;15.528;2023-02-10T10:55:07;101401.75;;;5.64;57.00
12664;BME280;6396;58.490;15.528;2023-02-10T10:57:35;101397.34;;;5.60;57.82
12664;BME280;6396;58.490;15.528;2023-02-10T11:00:15;101282.63;;;5.02;57.24
12664;BME280;6396;58.490;15.528;2023-02-10T11:02:51;101147.56;;;3.98;60.12
12664;BME280;6396;58.490;15.528;2023-02-10T11:05:18;101360.28;;;5.05;56.82
12664;BME280;6396;58.490;15.528;2023-02-10T11:07:48;101398.00;;;5.32;58.92
12664;BME280;6396;58.490;15.528;2023-02-10T11:10:21;101313.16;;;5.00;57.56
12664;BME280;6396;58.490;15.528;2023-02-10T11:12:48;101232.41;;;4.37;58.03
12664;BME280;6396;58.490;15.528;2023-02-10T11:15:30;101261.44;;;4.71;55.13
12664;BME280;6396;58.490;15.528;2023-02-10T11:18:00;101348.28;;;5.32;59.38
12664;BME280;6396;58.490;15.528;2023-02-10T11:20:29;101123.31;;;4.11;59.97
12664;BME280;6396;58.490;15.528;2023-02-10T11:22:57;101345.56;;;5.20;59.74
12664;BME280;6396;58.490;15.528;2023-02-10T11:25:27;101358.88;;;5.55;60.05
12664;BME280;6396;58.490;15.528;2023-02-10T11:27:54;101388.66;;;5.63;61.17
12664;BME280;6396;58.490;15.528;2023-02-10T11:30:28;101308.16;;;5.38;57.14
12664;BME280;6396;58.490;15.528;2023-02-10T11:32:56;101365.97;;;5.74;57.83
12664;BME280;6396;58.490;15.528;2023-02-10T11:35:24;101192.63;;;4.78;59.21
12664;BME280;6396;58.490;15.528;2023-02-10T11:37:54;101301.22;;;5.46;60.08
12664;BME280;6396;58.490;15.528;2023-02-10T11:40:26;101302.25;;;5.80;59.90
12664;BME280;6396;58.490;15.528;2023-02-10T11:42:56;101365.38;;;6.25;58.13
12664;BME280;6396;58.490;15.528;2023-02-10T11:45:27;101364.53;;;6.27;57.76
12664;BME280;6396;58.490;15.528;2023-02-10T11:48:01;100866.94;;;3.49;54.27
12664;BME280;6396;58.490;15.528;2023-02-10T11:50:31;100819.66;;;3.02;57.37
12664;BME280;6396;58.490;15.528;2023-02-10T11:52:59;101372.25;;;5.99;58.96
12664;BME280;6396;58.490;15.528;2023-02-10T11:55:33;101195.53;;;5.24;56.08
12664;BME280;6396;58.490;15.528;2023-02-10T12:22:16;100628.56;;;1.10;52.60
12664;BME280;6396;58.490;15.528;2023-02-10T12:25:01;100628.63;;;1.14;53.00
12664;BME280;6396;58.490;15.528;2023-02-10T12:27:37;101069.13;;;3.90;54.10
12664;BME280;6396;58.490;15.528;2023-02-10T12:30:14;101332.63;;;5.38;55.54
12664;BME280;6396;58.490;15.528;2023-02-10T12:32:52;101346.53;;;5.33;54.54
12664;BME280;6396;58.490;15.528;2023-02-10T12:35:38;100811.69;;;1.96;54.85
12664;BME280;6396;58.490;15.528;2023-02-10T12:38:25;100935.84;;;2.73;57.37
12664;BME280;6396;58.490;15.528;2023-02-10T12:41:04;101396.13;;;5.16;56.49
12664;BME280;6396;58.490;15.528;2023-02-10T12:44:01;100492.25;;;0.12;57.24
12664;BME280;6396;58.490;15.528;2023-02-10T12:46:37;101375.09;;;5.01;57.05
12664;BME280;6396;58.490;15.528;2023-02-10T12:49:18;100722.41;;;0.68;55.93
12664;BME280;6396;58.490;15.528;2023-02-10T12:52:04;100994.72;;;2.56;58.32
12664;BME280;6396;58.490;15.528;2023-02-10T12:54:37;101340.16;;;4.99;58.92
12664;BME280;6396;58.490;15.528;2023-02-10T12:57:12;101469.41;;;5.15;58.81
12664;BME280;6396;58.490;15.528;2023-02-10T12:59:47;101278.91;;;4.72;59.39
12664;BME280;6396;58.490;15.528;2023-02-10T13:02:19;100835.31;;;2.12;59.81
12664;BME280;6396;58.490;15.528;2023-02-10T13:04:50;100654.63;;;1.16;59.00
12664;BME280;6396;58.490;15.528;2023-02-10T13:07:29;100619.63;;;0.26;54.89
12664;BME280;6396;58.490;15.528;2023-02-10T13:10:07;101395.28;;;5.19;59.64
12664;BME280;6396;58.490;15.528;2023-02-10T13:12:38;101354.25;;;5.16;58.53
12664;BME280;6396;58.490;15.528;2023-02-10T13:15:14;101070.63;;;3.58;57.06
12664;BME280;6396;58.490;15.528;2023-02-10T13:17:47;101023.63;;;3.60;56.22
12664;BME280;6396;58.490;15.528;2023-02-10T13:20:28;101271.16;;;4.88;54.52
12664;BME280;6396;58.490;15.528;2023-02-10T13:23:04;101356.84;;;5.09;56.04
12664;BME280;6396;58.490;15.528;2023-02-10T13:25:45;101353.31;;;5.04;53.12
12664;BME280;6396;58.490;15.528;2023-02-10T13:28:21;101308.47;;;4.60;55.19
12664;BME280;6396;58.490;15.528;2023-02-10T13:31:02;101347.13;;;4.99;56.97
12664;BME280;6396;58.490;15.528;2023-02-10T13:33:38;100970.94;;;3.02;56.11
12664;BME280;6396;58.490;15.528;2023-02-10T13:36:14;100615.31;;;0.87;53.82
12664;BME280;6396;58.490;15.528;2023-02-10T13:38:42;101039.56;;;3.00;53.67
12664;BME280;6396;58.490;15.528;2023-02-10T13:41:24;100529.66;;;0.28;55.55
12664;BME280;6396;58.490;15.528;2023-02-10T13:44:24;100552.25;;;0.35;51.95
12664;BME280;6396;58.490;15.528;2023-02-10T13:46:57;101292.78;;;4.65;56.82
12664;BME280;6396;58.490;15.528;2023-02-10T13:49:25;101188.91;;;3.56;53.60
12664;BME280;6396;58.490;15.528;2023-02-10T13:52:00;100802.53;;;1.58;56.16
12664;BME280;6396;58.490;15.528;2023-02-10T13:54:30;101081.75;;;3.39;59.31
12664;BME280;6396;58.490;15.528;2023-02-10T13:56:59;101049.09;;;2.99;57.92
12664;BME280;6396;58.490;15.528;2023-02-10T13:59:34;101283.97;;;4.55;58.35
12664;BME280;6396;58.490;15.528;2023-02-10T14:02:11;101140.84;;;3.34;56.95
12664;BME280;6396;58.490;15.528;2023-02-10T14:04:44;101235.50;;;3.97;58.32
12664;BME280;6396;58.490;15.528;2023-02-10T14:07:31;100490.28;;;-0.59;55.81
12664;BME280;6396;58.490;15.528;2023-02-10T14:10:28;100390.75;;;-0.72;56.98
12664;BME280;6396;58.490;15.528;2023-02-10T14:12:58;100971.44;;;2.70;59.76
12664;BME280;6396;58.490;15.528;2023-02-10T14:15:28;101295.91;;;4.24;58.23
12664;BME280;6396;58.490;15.528;2023-02-10T14:18:03;100494.44;;;-0.70;60.66
12664;BME280;6396;58.490;15.528;2023-02-10T14:20:54;100411.41;;;-1.27;57.86
12664;BME280;6396;58.490;15.528;2023-02-10T14:23:27;100398.59;;;-0.66;61.08
12664;BME280;6396;58.490;15.528;2023-02-10T14:25:58;101130.34;;;3.32;57.86
12664;BME280;6396;58.490;15.528;2023-02-10T14:28:30;100808.41;;;1.42;57.70
12664;BME280;6396;58.490;15.528;2023-02-10T14:31:39;100259.88;;;-1.58;55.95
12664;BME280;6396;58.490;15.528;2023-02-10T14:34:22;101038.47;;;2.15;57.24
12664;BME280;6396;58.490;15.528;2023-02-10T14:36:58;101161.88;;;3.49;61.67
12664;BME280;6396;58.490;15.528;2023-02-10T14:39:26;101160.44;;;3.77;59.92
12664;BME280;6396;58.490;15.528;2023-02-10T14:41:55;101071.78;;;3.06;63.99
12664;BME280;6396;58.490;15.528;2023-02-10T14:44:28;101130.63;;;3.55;60.05
12664;BME280;6396;58.490;15.528;2023-02-10T14:46:57;101083.34;;;3.26;63.54
12664;BME280;6396;58.490;15.528;2023-02-10T14:49:24;101218.19;;;4.05;64.16
12664;BME280;6396;58.490;15.528;2023-02-10T14:51:53;100761.47;;;1.34;63.43
12664;BME280;6396;58.490;15.528;2023-02-10T14:54:22;101222.53;;;4.05;62.32
12664;BME280;6396;58.490;15.528;2023-02-10T14:56:51;101238.09;;;3.96;62.33
12664;BME280;6396;58.490;15.528;2023-02-10T14:59:20;101209.38;;;3.96;65.52
12664;BME280;6396;58.490;15.528;2023-02-10T15:01:49;101210.25;;;3.96;68.95
12664;BME280;6396;58.490;15.528;2023-02-10T15:04:17;101216.31;;;3.94;70.04
12664;BME280;6396;58.490;15.528;2023-02-10T15:06:47;101244.09;;;3.87;75.66
12664;BME280;6396;58.490;15.528;2023-02-10T15:09:17;101183.94;;;3.77;76.17
12664;BME280;6396;58.490;15.528;2023-02-10T15:11:46;101144.50;;;3.53;71.38
12664;BME280;6396;58.490;15.528;2023-02-10T15:14:34;101163.72;;;3.58;83.68
12664;BME280;6396;58.490;15.528;2023-02-10T15:17:05;101035.78;;;2.74;88.18
12664;BME280;6396;58.490;15.528;2023-02-10T15:19:32;101152.13;;;3.34;81.61